createdAt,value
2022-12-03T00:01:24.472Z,47.40
2022-12-03T00:03:51.492Z,46.85
2022-12-03T00:06:18.891Z,47.10
2022-12-03T00:08:45.708Z,46.97
2022-12-03T00:11:13.911Z,47.10
2022-12-03T00:13:40.741Z,47.13
2022-12-03T00:16:07.941Z,46.92
2022-12-03T00:18:35.336Z,47.05
2022-12-03T00:21:02.276Z,46.97
2022-12-03T00:23:29.123Z,46.85
2022-12-03T00:25:55.971Z,47.20
2022-12-03T00:28:24.255Z,46.80
2022-12-03T00:30:54.053Z,46.63
2022-12-03T00:33:21.203Z,47.15
2022-12-03T00:35:48.297Z,46.90
2022-12-03T00:38:15.357Z,46.65
2022-12-03T00:40:42.273Z,47.15
2022-12-03T00:43:09.101Z,46.90
2022-12-03T00:45:37.376Z,46.72
2022-12-03T00:48:04.640Z,47.05
2022-12-03T00:50:31.571Z,47.15
2022-12-03T00:52:58.412Z,47.17
2022-12-03T00:55:25.305Z,46.90
2022-12-03T00:57:52.163Z,46.78
2022-12-03T01:00:24.493Z,47.03
2022-12-03T01:02:53.195Z,46.88
2022-12-03T01:05:20.741Z,46.65
2022-12-03T01:07:47.654Z,47.08
2022-12-03T01:10:14.819Z,46.97
2022-12-03T01:12:41.755Z,47.42
2022-12-03T01:15:09.714Z,46.78
2022-12-03T01:17:37.119Z,47.05
2022-12-03T01:20:08.007Z,46.45
2022-12-03T01:22:34.926Z,46.80
2022-12-03T01:25:01.783Z,47.15
2022-12-03T01:27:28.632Z,47.13
2022-12-03T01:29:55.469Z,47.10
2022-12-03T01:32:22.375Z,47.17
2022-12-03T01:34:51.220Z,47.05
2022-12-03T01:37:22.107Z,46.95
2022-12-03T01:39:49.253Z,47.22
2022-12-03T01:42:18.549Z,47.00
2022-12-03T01:44:46.173Z,47.10
2022-12-03T01:47:16.201Z,47.08
2022-12-03T01:49:46.915Z,46.83
2022-12-03T01:52:16.386Z,46.70
2022-12-03T01:54:47.476Z,46.65
2022-12-03T01:57:21.172Z,46.85
2022-12-03T01:59:48.788Z,47.15
2022-12-03T02:02:21.078Z,46.70
2022-12-03T02:04:48.134Z,46.80
2022-12-03T02:07:24.385Z,46.80
2022-12-03T02:09:53.801Z,46.90
2022-12-03T02:12:25.821Z,47.00
2022-12-03T02:14:53.747Z,46.83
2022-12-03T02:17:21.212Z,47.15
2022-12-03T02:19:48.944Z,46.85
2022-12-03T02:22:27.080Z,46.78
2022-12-03T02:25:04.774Z,46.65
2022-12-03T02:27:31.740Z,46.80
2022-12-03T02:29:58.633Z,46.95
2022-12-03T02:32:25.592Z,46.60
2022-12-03T02:34:52.735Z,46.75
2022-12-03T02:37:24.391Z,46.75
2022-12-03T02:42:36.638Z,46.80
2022-12-03T02:45:09.099Z,46.72
2022-12-03T02:47:41.006Z,46.63
2022-12-03T02:50:09.892Z,46.60
2022-12-03T02:52:37.366Z,46.75
2022-12-03T02:55:06.767Z,46.88
2022-12-03T02:57:37.699Z,46.88
2022-12-03T03:00:06.653Z,46.77
2022-12-03T03:02:35.031Z,46.80
2022-12-03T03:05:02.497Z,46.58
2022-12-03T03:07:29.568Z,46.63
2022-12-03T03:09:56.559Z,46.85
2022-12-03T03:12:23.616Z,46.83
2022-12-03T03:14:52.610Z,46.63
2022-12-03T03:17:19.764Z,47.15
2022-12-03T03:19:46.862Z,46.45
2022-12-03T03:22:13.710Z,46.45
2022-12-03T03:24:40.559Z,46.88
2022-12-03T03:27:07.663Z,47.20
2022-12-03T03:29:35.033Z,46.63
2022-12-03T03:32:04.442Z,46.75
2022-12-03T03:34:32.984Z,46.38
2022-12-03T03:36:59.895Z,46.97
2022-12-03T03:39:26.751Z,47.25
2022-12-03T03:41:53.619Z,46.55
2022-12-03T03:44:20.585Z,46.70
2022-12-03T03:46:48.840Z,47.58
2022-12-03T03:49:17.350Z,46.55
2022-12-03T03:51:44.715Z,46.92
2022-12-03T03:54:12.229Z,47.03
2022-12-03T03:56:39.214Z,46.85
2022-12-03T03:59:06.125Z,46.97
2022-12-03T04:01:33.551Z,46.80
2022-12-03T04:04:00.876Z,46.80
2022-12-03T04:06:29.227Z,46.92
2022-12-03T04:08:56.084Z,46.95
2022-12-03T04:11:41.345Z,46.88
2022-12-03T04:14:08.247Z,47.03
2022-12-03T04:16:35.106Z,47.08
2022-12-03T04:19:01.953Z,46.65
2022-12-03T04:21:48.420Z,46.85
2022-12-03T04:24:15.290Z,46.63
2022-12-03T04:27:00.771Z,46.88
2022-12-03T04:29:27.661Z,47.17
2022-12-03T04:32:13.132Z,46.85
2022-12-03T04:34:58.422Z,46.78
2022-12-03T04:37:26.640Z,47.00
2022-12-03T04:39:53.490Z,46.42
2022-12-03T04:42:20.327Z,46.65
2022-12-03T04:44:47.470Z,47.03
2022-12-03T04:47:16.173Z,46.60
2022-12-03T04:49:45.218Z,46.60
2022-12-03T04:52:13.462Z,47.03
2022-12-03T04:54:42.202Z,46.65
2022-12-03T04:57:09.967Z,46.70
2022-12-03T04:59:37.380Z,46.67
2022-12-03T05:02:05.548Z,46.65
2022-12-03T05:04:33.046Z,46.65
2022-12-03T05:06:59.916Z,47.00
2022-12-03T05:09:26.814Z,46.72
2022-12-03T05:11:55.023Z,46.70
2022-12-03T05:14:22.335Z,46.92
2022-12-03T05:16:49.243Z,46.63
2022-12-03T05:19:16.264Z,46.47
2022-12-03T05:21:43.106Z,47.42
2022-12-03T05:24:10.008Z,46.70
2022-12-03T05:26:36.834Z,46.70
2022-12-03T05:29:05.364Z,46.58
2022-12-03T05:31:32.190Z,47.15
2022-12-03T05:33:59.095Z,46.50
2022-12-03T05:36:26.120Z,46.58
2022-12-03T05:38:52.941Z,46.83
2022-12-03T05:41:38.540Z,46.83
2022-12-03T05:44:06.769Z,46.60
2022-12-03T05:46:33.825Z,47.13
2022-12-03T05:49:00.947Z,46.63
2022-12-03T05:51:28.054Z,46.92
2022-12-03T05:53:57.197Z,46.72
2022-12-03T05:56:24.170Z,46.97
2022-12-03T05:58:51.083Z,46.97
2022-12-03T06:01:19.343Z,47.05
2022-12-03T06:03:46.304Z,47.10
2022-12-03T06:06:13.203Z,46.53
2022-12-03T06:08:40.052Z,47.03
2022-12-03T06:11:06.862Z,46.90
2022-12-03T06:13:33.802Z,47.05
2022-12-03T06:16:01.320Z,46.40
2022-12-03T06:18:29.641Z,46.78
2022-12-03T06:20:56.455Z,46.45
2022-12-03T06:23:23.318Z,46.72
2022-12-03T06:25:50.187Z,46.65
2022-12-03T06:28:17.018Z,46.65
2022-12-03T06:30:44.109Z,46.78
2022-12-03T06:33:11.071Z,46.42
2022-12-03T06:35:39.250Z,46.53
2022-12-03T06:38:06.134Z,46.95
2022-12-03T06:40:33.119Z,46.50
2022-12-03T06:42:59.994Z,46.70
2022-12-03T06:45:26.807Z,46.85
2022-12-03T06:47:53.711Z,46.83
2022-12-03T06:50:20.545Z,46.97
2022-12-03T06:52:48.735Z,46.78
2022-12-03T06:55:15.854Z,46.83
2022-12-03T06:57:42.691Z,46.95
2022-12-03T07:00:10.877Z,46.58
2022-12-03T07:02:37.903Z,47.28
2022-12-03T07:05:05.298Z,46.80
2022-12-03T07:07:32.325Z,46.67
2022-12-03T07:10:00.649Z,47.13
2022-12-03T07:12:27.492Z,46.63
2022-12-03T07:14:54.478Z,46.88
2022-12-03T07:17:21.515Z,47.13
2022-12-03T07:19:48.364Z,47.05
2022-12-03T07:22:15.323Z,46.70
2022-12-03T07:24:42.273Z,46.88
2022-12-03T07:27:10.470Z,46.65
2022-12-03T07:29:37.282Z,46.78
2022-12-03T07:32:04.552Z,46.97
2022-12-03T07:34:31.401Z,46.83
2022-12-03T07:36:58.744Z,47.28
2022-12-03T07:39:25.608Z,47.25
2022-12-03T07:41:52.517Z,47.20
2022-12-03T07:44:20.738Z,47.38
2022-12-03T07:46:47.672Z,47.45
2022-12-03T07:49:14.798Z,47.25
2022-12-03T07:51:41.712Z,47.53
2022-12-03T07:54:08.819Z,47.47
2022-12-03T07:56:36.076Z,47.25
2022-12-03T07:59:02.915Z,47.33
2022-12-03T08:01:31.138Z,47.65
2022-12-03T08:03:58.017Z,47.55
2022-12-03T08:06:24.878Z,47.75
2022-12-03T08:08:51.713Z,47.80
2022-12-03T08:11:18.577Z,47.42
2022-12-03T08:13:45.450Z,47.35
2022-12-03T08:16:17.875Z,47.75
2022-12-03T08:18:47.765Z,47.75
2022-12-03T08:21:17.878Z,47.47
2022-12-03T08:23:45.595Z,47.70
2022-12-03T08:26:20.716Z,47.70
2022-12-03T08:28:47.773Z,47.83
2022-12-03T08:31:21.187Z,47.67
2022-12-03T08:33:51.678Z,47.50
2022-12-03T08:36:22.867Z,47.60
2022-12-03T08:38:52.046Z,47.85
2022-12-03T08:41:38.390Z,47.65
2022-12-03T08:44:24.838Z,47.83
2022-12-03T08:46:55.692Z,47.42
2022-12-03T08:49:23.930Z,47.38
2022-12-03T08:51:56.013Z,47.83
2022-12-03T08:54:24.970Z,47.90
2022-12-03T08:56:51.836Z,47.35
2022-12-03T08:59:26.062Z,47.35
2022-12-03T09:01:53.829Z,47.67
2022-12-03T09:04:29.208Z,48.03
2022-12-03T09:06:56.644Z,47.58
2022-12-03T09:09:24.511Z,47.58
2022-12-03T09:11:52.013Z,47.90
2022-12-03T09:14:21.269Z,47.70
2022-12-03T09:16:49.225Z,47.60
2022-12-03T09:19:16.337Z,47.58
2022-12-03T09:21:45.145Z,47.60
2022-12-03T09:24:12.329Z,47.50
2022-12-03T09:26:39.226Z,47.50
2022-12-03T09:29:11.729Z,48.03
2022-12-03T09:31:39.179Z,47.88
2022-12-03T09:34:06.531Z,47.80
2022-12-03T09:36:33.833Z,47.90
2022-12-03T09:39:02.068Z,47.83
2022-12-03T09:41:28.964Z,47.53
2022-12-03T09:44:05.477Z,47.80
2022-12-03T09:46:35.522Z,47.85
2022-12-03T09:49:03.082Z,47.53
2022-12-03T09:51:33.051Z,47.58
2022-12-03T09:54:00.413Z,47.80
2022-12-03T09:56:32.274Z,47.13
2022-12-03T09:58:59.436Z,47.58
2022-12-03T10:01:30.087Z,47.75
2022-12-03T10:03:58.656Z,47.58
2022-12-03T10:06:25.635Z,47.90
2022-12-03T10:08:55.108Z,47.75
2022-12-03T10:11:24.636Z,47.53
2022-12-03T10:13:55.261Z,47.72
2022-12-03T10:16:22.513Z,47.83
2022-12-03T10:18:52.526Z,47.65
2022-12-03T10:21:23.134Z,48.10
2022-12-03T10:23:55.097Z,47.40
2022-12-03T10:26:40.139Z,47.60
2022-12-03T10:29:14.247Z,47.53
2022-12-03T10:31:41.169Z,47.35
2022-12-03T10:34:09.368Z,47.78
2022-12-03T10:36:36.598Z,47.75
2022-12-03T10:39:09.588Z,48.00
2022-12-03T10:41:38.634Z,47.28
2022-12-03T10:44:17.535Z,47.53
2022-12-03T10:46:45.757Z,47.75
2022-12-03T10:49:17.243Z,47.58
2022-12-03T10:54:17.921Z,47.35
2022-12-03T10:56:45.547Z,47.75
2022-12-03T10:59:19.834Z,48.15
2022-12-03T11:01:47.675Z,47.55
2022-12-03T11:04:23.647Z,47.42
2022-12-03T11:06:50.995Z,47.80
2022-12-03T11:09:21.905Z,47.63
2022-12-03T11:11:49.248Z,47.92
2022-12-03T11:14:56.616Z,47.20
2022-12-03T11:17:51.063Z,47.72
2022-12-03T11:20:51.342Z,47.40
2022-12-03T11:23:56.564Z,47.55
2022-12-03T11:27:02.151Z,47.47
2022-12-03T11:29:52.372Z,47.55
2022-12-03T11:33:19.834Z,47.05
2022-12-03T11:36:11.880Z,47.58
2022-12-03T11:38:47.340Z,47.45
2022-12-03T11:41:19.288Z,47.40
2022-12-03T11:44:01.907Z,47.63
2022-12-03T11:46:40.568Z,47.47
2022-12-03T11:49:24.595Z,47.63
2022-12-03T11:51:51.862Z,47.20
2022-12-03T11:54:21.521Z,47.30
2022-12-03T11:56:49.579Z,47.90
2022-12-03T11:59:17.627Z,47.33
2022-12-03T12:01:45.389Z,47.22
2022-12-03T12:04:33.486Z,47.25
2022-12-03T12:07:01.602Z,47.80
2022-12-03T12:09:47.889Z,47.50
2022-12-03T12:12:18.966Z,47.33
2022-12-03T12:14:45.914Z,47.78
2022-12-03T12:17:31.582Z,47.83
2022-12-03T12:20:24.656Z,47.95
2022-12-03T12:22:54.262Z,47.78
2022-12-03T12:25:40.965Z,47.60
2022-12-03T12:28:08.625Z,47.85
2022-12-03T12:30:36.909Z,47.30
2022-12-03T12:33:19.787Z,47.35
2022-12-03T12:35:47.998Z,47.63
2022-12-03T12:38:17.826Z,47.47
2022-12-03T12:40:46.928Z,47.67
2022-12-03T12:43:25.151Z,47.33
2022-12-03T12:45:54.913Z,47.67
2022-12-03T12:48:26.703Z,47.35
2022-12-03T12:51:01.203Z,47.55
2022-12-03T12:53:31.309Z,47.17
2022-12-03T12:55:59.845Z,47.83
2022-12-03T12:58:28.705Z,47.38
2022-12-03T13:00:58.592Z,47.53
2022-12-03T13:03:27.570Z,47.38
2022-12-03T13:05:57.675Z,47.38
2022-12-03T13:08:27.885Z,47.42
2022-12-03T13:10:55.583Z,47.55
2022-12-03T13:13:25.230Z,47.65
2022-12-03T13:15:58.608Z,47.58
2022-12-03T13:18:33.175Z,48.05
2022-12-03T13:21:13.621Z,48.08
2022-12-03T13:23:40.662Z,47.35
2022-12-03T13:26:34.112Z,47.75
2022-12-03T13:29:10.938Z,47.90
2022-12-03T13:31:43.534Z,47.80
2022-12-03T13:34:16.451Z,47.78
2022-12-03T13:36:50.563Z,47.75
2022-12-03T13:39:29.294Z,47.45
2022-12-03T13:42:15.641Z,47.67
2022-12-03T13:44:46.225Z,47.72
2022-12-03T13:47:16.164Z,47.92
2022-12-03T13:49:47.861Z,48.00
2022-12-03T13:52:19.399Z,47.53
2022-12-03T13:54:49.266Z,47.70
2022-12-03T13:57:16.128Z,47.45
2022-12-03T13:59:43.023Z,47.78
2022-12-03T14:02:10.145Z,47.78
2022-12-03T14:04:37.125Z,47.63
2022-12-03T14:07:03.969Z,47.78
2022-12-03T14:09:32.198Z,47.92
2022-12-03T14:12:17.466Z,47.72
2022-12-03T14:14:44.773Z,47.28
2022-12-03T14:17:11.746Z,47.65
2022-12-03T14:19:38.698Z,48.05
2022-12-03T14:22:08.018Z,47.28
2022-12-03T14:24:36.488Z,47.67
2022-12-03T14:27:03.336Z,47.72
2022-12-03T14:29:30.265Z,47.67
2022-12-03T14:31:57.224Z,47.75
2022-12-03T14:34:24.172Z,47.92
2022-12-03T14:36:51.061Z,47.60
2022-12-03T14:39:17.946Z,47.90
2022-12-03T14:42:04.936Z,47.70
2022-12-03T14:44:31.903Z,47.67
2022-12-03T14:46:58.791Z,47.80
2022-12-03T14:49:25.685Z,47.55
2022-12-03T14:51:52.544Z,47.72
2022-12-03T14:54:20.397Z,47.35
2022-12-03T14:56:48.676Z,47.88
2022-12-03T14:59:15.550Z,47.92
2022-12-03T15:01:42.536Z,47.88
2022-12-03T15:04:09.496Z,47.58
2022-12-03T15:06:36.409Z,47.70
2022-12-03T15:09:04.284Z,47.88
2022-12-03T15:11:31.215Z,47.78
2022-12-03T15:13:59.541Z,47.60
2022-12-03T15:16:26.476Z,47.78
2022-12-03T15:18:53.709Z,47.67
2022-12-03T15:21:20.602Z,48.00
2022-12-03T15:23:47.519Z,47.85
2022-12-03T15:26:14.396Z,47.63
2022-12-03T15:28:45.339Z,48.03
2022-12-03T15:31:16.316Z,47.65
2022-12-03T15:33:43.279Z,47.67
2022-12-03T15:36:10.208Z,47.55
2022-12-03T15:38:37.105Z,48.00
2022-12-03T15:41:21.027Z,47.70
2022-12-03T15:43:48.044Z,47.72
2022-12-03T15:46:16.276Z,48.00
2022-12-03T15:48:43.387Z,47.90
2022-12-03T15:51:10.368Z,47.88
2022-12-03T15:53:37.442Z,47.60
2022-12-03T15:56:04.735Z,47.47
2022-12-03T15:58:31.738Z,48.15
2022-12-03T16:00:58.820Z,47.60
2022-12-03T16:03:27.165Z,48.15
2022-12-03T16:05:54.116Z,47.55
2022-12-03T16:08:21.345Z,48.00
2022-12-03T16:10:48.325Z,47.90
2022-12-03T16:13:15.149Z,47.58
2022-12-03T16:15:42.104Z,47.67
2022-12-03T16:18:09.288Z,48.03
2022-12-03T16:20:37.468Z,47.65
2022-12-03T16:23:04.428Z,48.17
2022-12-03T16:25:31.279Z,48.05
2022-12-03T16:27:58.419Z,47.92
2022-12-03T16:30:25.272Z,47.92
2022-12-03T16:32:52.137Z,48.00
2022-12-03T16:35:18.975Z,47.70
2022-12-03T16:37:47.251Z,47.60
2022-12-03T16:40:14.301Z,48.05
2022-12-03T16:42:41.285Z,47.60
2022-12-03T16:45:09.160Z,47.92
2022-12-03T16:47:36.583Z,47.65
2022-12-03T16:50:05.037Z,47.95
2022-12-03T16:52:32.193Z,48.28
2022-12-03T16:55:00.452Z,48.50
2022-12-03T16:57:33.148Z,48.17
2022-12-03T17:00:00.885Z,47.88
2022-12-03T17:02:28.048Z,47.85
2022-12-03T17:04:55.109Z,47.75
2022-12-03T17:07:21.930Z,47.97
2022-12-03T17:09:48.893Z,47.78
2022-12-03T17:12:17.155Z,48.20
2022-12-03T17:14:44.109Z,47.58
2022-12-03T17:17:10.971Z,48.38
2022-12-03T17:19:37.907Z,48.05
2022-12-03T17:22:04.721Z,48.15
2022-12-03T17:24:31.575Z,47.83
2022-12-03T17:26:58.562Z,47.85
2022-12-03T17:29:26.788Z,48.58
2022-12-03T17:31:53.711Z,47.92
2022-12-03T17:34:20.586Z,47.83
2022-12-03T17:36:47.404Z,48.03
2022-12-03T17:39:14.288Z,47.95
2022-12-03T17:41:41.183Z,48.08
2022-12-03T17:44:11.320Z,47.83
2022-12-03T17:46:41.325Z,47.88
2022-12-03T17:49:08.168Z,48.08
2022-12-03T17:51:35.020Z,48.30
2022-12-03T17:54:01.859Z,48.20
2022-12-03T17:56:28.714Z,48.05
2022-12-03T17:58:57.153Z,47.92
2022-12-03T18:01:24.111Z,48.30
2022-12-03T18:03:52.464Z,47.85
2022-12-03T18:06:19.366Z,48.55
2022-12-03T18:08:46.212Z,48.20
2022-12-03T18:11:13.047Z,48.10
2022-12-03T18:13:39.965Z,48.08
2022-12-03T18:16:07.384Z,48.47
2022-12-03T18:18:34.248Z,47.95
2022-12-03T18:21:04.267Z,48.58
2022-12-03T18:23:32.081Z,48.25
2022-12-03T18:25:58.941Z,47.92
2022-12-03T18:28:25.930Z,48.33
2022-12-03T18:30:53.114Z,48.35
2022-12-03T18:33:21.217Z,47.80
2022-12-03T18:35:48.109Z,48.15
2022-12-03T18:38:18.033Z,48.30
2022-12-03T18:40:46.287Z,48.38
2022-12-03T18:43:14.493Z,48.30
2022-12-03T18:45:42.122Z,47.97
2022-12-03T18:48:12.544Z,48.30
2022-12-03T18:50:39.646Z,48.00
2022-12-03T18:53:06.493Z,48.20
2022-12-03T18:55:36.040Z,48.33
2022-12-03T18:58:03.158Z,48.22
2022-12-03T19:00:30.086Z,48.55
2022-12-03T19:03:04.838Z,48.33
2022-12-03T19:05:34.376Z,47.85
2022-12-03T19:08:01.923Z,48.38
2022-12-03T19:10:29.129Z,47.83
2022-12-03T19:12:57.579Z,47.95
2022-12-03T19:15:24.509Z,48.47
2022-12-03T19:17:51.670Z,48.30
2022-12-03T19:20:18.639Z,48.40
2022-12-03T19:22:45.509Z,48.88
2022-12-03T19:25:12.388Z,48.30
2022-12-03T19:27:39.293Z,47.75
2022-12-03T19:30:08.998Z,48.13
2022-12-03T19:32:36.141Z,48.03
2022-12-03T19:35:05.293Z,48.47
2022-12-03T19:37:33.573Z,48.45
2022-12-03T19:40:01.064Z,48.28
2022-12-03T19:42:28.052Z,48.47
2022-12-03T19:44:54.979Z,48.28
2022-12-03T19:47:24.744Z,47.92
2022-12-03T19:49:53.229Z,48.38
2022-12-03T19:52:20.420Z,47.92
2022-12-03T19:54:47.287Z,48.15
2022-12-03T19:57:18.075Z,48.15
2022-12-03T19:59:48.504Z,48.25
2022-12-03T20:02:15.398Z,48.20
2022-12-03T20:04:43.731Z,48.20
2022-12-03T20:07:10.631Z,48.58
2022-12-03T20:09:37.483Z,48.60
2022-12-03T20:12:04.622Z,48.22
2022-12-03T20:14:31.571Z,48.50
2022-12-03T20:17:01.330Z,48.13
2022-12-03T20:19:28.265Z,48.15
2022-12-03T20:22:02.254Z,48.22
2022-12-03T20:24:29.771Z,47.80
2022-12-03T20:26:56.598Z,48.08
2022-12-03T20:29:23.543Z,48.13
2022-12-03T20:31:50.400Z,48.47
2022-12-03T20:34:17.466Z,47.95
2022-12-03T20:36:45.515Z,48.45
2022-12-03T20:39:13.704Z,48.35
2022-12-03T20:41:40.650Z,48.42
2022-12-03T20:44:08.454Z,48.45
2022-12-03T20:46:36.327Z,48.65
2022-12-03T20:49:04.058Z,48.05
2022-12-03T20:51:31.188Z,48.55
2022-12-03T20:53:59.118Z,47.88
2022-12-03T20:56:31.373Z,48.67
2022-12-03T20:59:04.887Z,48.70
2022-12-03T21:01:31.891Z,48.28
2022-12-03T21:03:58.986Z,47.92
2022-12-03T21:06:28.085Z,48.03
2022-12-03T21:08:56.706Z,47.85
2022-12-03T21:11:25.784Z,48.08
2022-12-03T21:13:54.553Z,47.95
2022-12-03T21:16:45.421Z,48.35
2022-12-03T21:19:11.740Z,48.45
2022-12-03T21:21:38.565Z,48.13
2022-12-03T21:24:05.961Z,47.90
2022-12-03T21:26:33.592Z,47.92
2022-12-03T21:29:01.838Z,48.22
2022-12-03T21:31:30.398Z,47.97
2022-12-03T21:33:58.046Z,47.92
2022-12-03T21:36:25.650Z,47.78
2022-12-03T21:38:52.717Z,47.85
2022-12-03T21:41:19.750Z,47.90
2022-12-03T21:43:46.735Z,48.38
2022-12-03T21:47:10.205Z,48.10
2022-12-03T21:49:04.049Z,48.25
2022-12-03T21:51:31.025Z,48.72
2022-12-03T21:54:00.632Z,48.47
2022-12-03T21:56:30.344Z,47.65
2022-12-03T21:58:57.211Z,47.92
2022-12-03T22:01:25.705Z,48.08
2022-12-03T22:03:52.665Z,47.72
2022-12-03T22:06:19.646Z,47.53
2022-12-03T22:08:46.835Z,48.33
2022-12-03T22:11:15.966Z,48.08
2022-12-03T22:13:43.519Z,48.00
2022-12-03T22:16:12.352Z,48.00
2022-12-03T22:18:40.884Z,48.47
2022-12-03T22:21:09.591Z,48.17
2022-12-03T22:23:36.751Z,47.50
2022-12-03T22:26:06.960Z,47.72
2022-12-03T22:28:34.673Z,47.72
2022-12-03T22:31:05.878Z,48.55
2022-12-03T22:33:32.821Z,47.58
2022-12-03T22:36:02.669Z,47.75
2022-12-03T22:38:30.945Z,48.20
2022-12-03T22:40:58.006Z,47.83
2022-12-03T22:43:25.262Z,47.92
2022-12-03T22:45:53.636Z,48.15
2022-12-03T22:48:21.218Z,48.67
2022-12-03T22:50:48.613Z,48.25
2022-12-03T22:53:17.447Z,48.08
2022-12-03T22:55:44.711Z,48.20
2022-12-03T22:58:11.775Z,47.80
2022-12-03T23:00:41.034Z,47.72
2022-12-03T23:03:08.309Z,48.13
2022-12-03T23:05:38.570Z,48.22
2022-12-03T23:08:07.046Z,47.85
2022-12-03T23:10:36.794Z,47.78
2022-12-03T23:13:04.827Z,47.63
2022-12-03T23:15:32.466Z,48.60
2022-12-03T23:18:00.239Z,47.90
2022-12-03T23:20:29.143Z,47.60
2022-12-03T23:22:56.031Z,48.15
2022-12-03T23:25:22.860Z,48.35
2022-12-03T23:27:51.079Z,48.55
2022-12-03T23:30:18.132Z,48.42
2022-12-03T23:32:45.068Z,48.33
2022-12-03T23:35:12.614Z,47.65
2022-12-03T23:37:42.955Z,47.92
2022-12-03T23:40:11.270Z,47.80
2022-12-03T23:42:38.235Z,47.47
2022-12-03T23:45:08.033Z,48.03
2022-12-03T23:47:34.941Z,47.78
2022-12-03T23:50:01.809Z,48.05
2022-12-03T23:52:28.750Z,47.85
2022-12-03T23:54:55.665Z,48.00
2022-12-03T23:57:22.643Z,48.35
2022-12-03T23:59:49.560Z,48.08
